createdAt,value
2018-07-25T00:00:45.636Z,998.4
2018-07-25T00:01:46.349Z,998.4
2018-07-25T00:02:47.091Z,998.5
2018-07-25T00:03:47.812Z,998.5
2018-07-25T00:04:48.560Z,998.5
2018-07-25T00:05:49.277Z,998.4
2018-07-25T00:06:50.001Z,998.4
2018-07-25T00:07:50.783Z,998.5
2018-07-25T00:08:51.517Z,998.4
2018-07-25T00:09:52.667Z,998.4
2018-07-25T00:10:53.384Z,998.4
2018-07-25T00:11:54.102Z,998.4
2018-07-25T00:12:54.884Z,998.4
2018-07-25T00:13:55.727Z,998.4
2018-07-25T00:14:56.614Z,998.4
2018-07-25T00:15:57.378Z,998.4
2018-07-25T00:16:58.462Z,998.4
2018-07-25T00:17:59.213Z,998.4
2018-07-25T00:19:00.109Z,998.4
2018-07-25T00:20:00.864Z,998.4
2018-07-25T00:21:01.659Z,998.4
2018-07-25T00:22:02.935Z,998.4
2018-07-25T00:23:03.736Z,998.4
2018-07-25T00:24:04.668Z,998.4
2018-07-25T00:25:05.418Z,998.4
2018-07-25T00:26:06.150Z,998.4
2018-07-25T00:27:07.381Z,998.4
2018-07-25T00:28:08.133Z,998.4
2018-07-25T00:29:09.194Z,998.4
2018-07-25T00:30:09.945Z,998.4
2018-07-25T00:31:10.796Z,998.4
2018-07-25T00:32:11.556Z,998.4
2018-07-25T00:33:12.319Z,998.4
2018-07-25T00:34:13.218Z,998.4
2018-07-25T00:35:14.442Z,998.3
2018-07-25T00:36:15.274Z,998.4
2018-07-25T00:37:16.130Z,998.3
2018-07-25T00:38:16.913Z,998.3
2018-07-25T00:39:17.667Z,998.4
2018-07-25T00:40:18.463Z,998.3
2018-07-25T00:41:19.355Z,998.3
2018-07-25T00:42:20.219Z,998.4
2018-07-25T00:43:20.997Z,998.4
2018-07-25T00:44:21.749Z,998.3
2018-07-25T00:45:22.542Z,998.3
2018-07-25T00:46:23.346Z,998.3
2018-07-25T00:47:24.082Z,998.3
2018-07-25T00:48:24.794Z,998.3
2018-07-25T00:49:25.550Z,998.3
2018-07-25T00:50:26.289Z,998.4
2018-07-25T00:51:27.375Z,998.4
2018-07-25T00:52:28.098Z,998.4
2018-07-25T00:53:28.849Z,998.3
2018-07-25T00:54:29.565Z,998.4
2018-07-25T00:55:30.614Z,998.4
2018-07-25T00:56:31.275Z,998.3
2018-07-25T00:57:32.005Z,998.4
2018-07-25T00:58:32.733Z,998.3
2018-07-25T00:59:33.702Z,998.3
2018-07-25T01:00:34.454Z,998.3
2018-07-25T01:01:35.180Z,998.3
2018-07-25T01:02:35.906Z,998.3
2018-07-25T01:03:36.693Z,998.3
2018-07-25T01:04:37.413Z,998.4
2018-07-25T01:05:38.139Z,998.3
2018-07-25T01:06:38.871Z,998.3
2018-07-25T01:07:39.590Z,998.4
2018-07-25T01:08:40.331Z,998.4
2018-07-25T01:09:41.049Z,998.4
2018-07-25T01:10:42.020Z,998.4
2018-07-25T01:11:42.746Z,998.3
2018-07-25T01:12:43.525Z,998.4
2018-07-25T01:13:44.242Z,998.3
2018-07-25T01:14:44.975Z,998.4
2018-07-25T01:15:45.705Z,998.4
2018-07-25T01:16:46.440Z,998.4
2018-07-25T01:17:47.176Z,998.4
2018-07-25T01:18:48.145Z,998.4
2018-07-25T01:19:48.866Z,998.4
2018-07-25T01:20:49.594Z,998.4
2018-07-25T01:21:50.317Z,998.4
2018-07-25T01:22:51.292Z,998.4
2018-07-25T01:23:52.020Z,998.5
2018-07-25T01:24:52.793Z,998.5
2018-07-25T01:25:53.530Z,998.5
2018-07-25T01:26:54.247Z,998.4
2018-07-25T01:27:54.976Z,998.5
2018-07-25T01:28:55.699Z,998.5
2018-07-25T01:29:56.992Z,998.5
2018-07-25T01:30:57.713Z,998.5
2018-07-25T01:31:58.436Z,998.5
2018-07-25T01:32:59.412Z,998.5
2018-07-25T01:34:00.130Z,998.5
2018-07-25T01:35:00.863Z,998.5
2018-07-25T01:36:02.115Z,998.6
2018-07-25T01:37:02.834Z,998.6
2018-07-25T01:38:03.550Z,998.6
2018-07-25T01:39:04.271Z,998.6
2018-07-25T01:40:05.018Z,998.6
2018-07-25T01:41:05.993Z,998.6
2018-07-25T01:42:06.700Z,998.6
2018-07-25T01:43:07.427Z,998.6
2018-07-25T01:44:08.150Z,998.6
2018-07-25T01:45:08.885Z,998.7
2018-07-25T01:46:09.600Z,998.7
2018-07-25T01:47:10.334Z,998.6
2018-07-25T01:48:11.055Z,998.6
2018-07-25T01:49:11.784Z,998.7
2018-07-25T01:50:12.764Z,998.7
2018-07-25T01:51:13.493Z,998.6
2018-07-25T01:52:14.213Z,998.7
2018-07-25T01:53:14.934Z,998.7
2018-07-25T01:54:15.650Z,998.7
2018-07-25T01:55:16.377Z,998.7
2018-07-25T01:56:17.106Z,998.7
2018-07-25T01:57:17.817Z,998.7
2018-07-25T01:58:18.542Z,998.7
2018-07-25T01:59:19.274Z,998.7
2018-07-25T02:00:20.005Z,998.7
2018-07-25T02:01:20.751Z,998.7
2018-07-25T02:02:21.466Z,998.7
2018-07-25T02:03:22.194Z,998.7
2018-07-25T02:04:22.918Z,998.7
2018-07-25T02:05:23.637Z,998.7
2018-07-25T02:06:24.354Z,998.7
2018-07-25T02:07:25.082Z,998.7
2018-07-25T02:08:25.812Z,998.7
2018-07-25T02:09:26.584Z,998.8
2018-07-25T02:10:27.317Z,998.8
2018-07-25T02:11:28.029Z,998.8
2018-07-25T02:12:28.759Z,998.8
2018-07-25T02:13:29.733Z,998.8
2018-07-25T02:14:30.808Z,998.8
2018-07-25T02:15:31.545Z,998.8
2018-07-25T02:16:32.269Z,998.8
2018-07-25T02:17:32.997Z,998.8
2018-07-25T02:18:33.715Z,998.8
2018-07-25T02:19:34.456Z,998.8
2018-07-25T02:20:35.174Z,998.7
2018-07-25T02:21:35.901Z,998.7
2018-07-25T02:22:36.642Z,998.8
2018-07-25T02:23:37.356Z,998.7
2018-07-25T02:24:38.090Z,998.8
2018-07-25T02:25:39.067Z,998.7
2018-07-25T02:26:39.792Z,998.7
2018-07-25T02:27:40.531Z,998.8
2018-07-25T02:28:41.247Z,998.8
2018-07-25T02:29:42.215Z,998.8
2018-07-25T02:30:42.943Z,998.8
2018-07-25T02:31:43.714Z,998.8
2018-07-25T02:32:44.433Z,998.8
2018-07-25T02:33:45.158Z,998.8
2018-07-25T02:34:45.873Z,998.8
2018-07-25T02:35:46.613Z,998.8
2018-07-25T02:36:47.329Z,998.8
2018-07-25T02:37:48.044Z,998.8
2018-07-25T02:38:48.778Z,998.8
2018-07-25T02:39:49.507Z,998.8
2018-07-25T02:40:50.214Z,998.8
2018-07-25T02:41:50.943Z,998.8
2018-07-25T02:42:51.666Z,998.9
2018-07-25T02:43:52.398Z,998.8
2018-07-25T02:44:53.127Z,998.8
2018-07-25T02:45:53.854Z,998.8
2018-07-25T02:46:54.586Z,998.8
2018-07-25T02:47:55.355Z,998.8
2018-07-25T02:48:56.067Z,998.8
2018-07-25T02:49:56.791Z,998.8
2018-07-25T02:50:57.521Z,998.8
2018-07-25T02:51:58.266Z,998.8
2018-07-25T02:52:59.036Z,998.8
2018-07-25T02:53:59.761Z,998.9
2018-07-25T02:55:00.488Z,998.8
2018-07-25T02:56:01.219Z,998.9
2018-07-25T02:57:01.987Z,998.9
2018-07-25T02:58:02.914Z,998.8
2018-07-25T02:59:03.631Z,998.8
2018-07-25T03:00:04.341Z,998.8
2018-07-25T03:01:05.066Z,998.8
2018-07-25T03:02:05.781Z,998.8
2018-07-25T03:03:06.504Z,998.8
2018-07-25T03:04:07.229Z,998.8
2018-07-25T03:05:07.967Z,998.9
2018-07-25T03:06:08.740Z,998.9
2018-07-25T03:07:09.481Z,998.9
2018-07-25T03:08:10.194Z,998.8
2018-07-25T03:09:10.974Z,998.9
2018-07-25T03:10:11.642Z,998.9
2018-07-25T03:11:12.427Z,998.9
2018-07-25T03:12:13.149Z,998.9
2018-07-25T03:13:13.940Z,998.9
2018-07-25T03:14:14.597Z,998.8
2018-07-25T03:15:15.327Z,998.8
2018-07-25T03:16:16.399Z,998.9
2018-07-25T03:17:17.132Z,998.9
2018-07-25T03:18:17.867Z,998.8
2018-07-25T03:19:18.601Z,998.8
2018-07-25T03:20:19.331Z,998.9
2018-07-25T03:21:20.105Z,998.9
2018-07-25T03:22:20.827Z,998.8
2018-07-25T03:23:21.562Z,998.8
2018-07-25T03:24:22.280Z,998.9
2018-07-25T03:25:23.030Z,998.8
2018-07-25T03:26:23.810Z,998.9
2018-07-25T03:27:24.782Z,998.8
2018-07-25T03:28:25.511Z,998.9
2018-07-25T03:29:26.221Z,998.9
2018-07-25T03:30:26.954Z,998.9
2018-07-25T03:31:27.682Z,998.8
2018-07-25T03:32:28.394Z,998.9
2018-07-25T03:33:29.113Z,998.9
2018-07-25T03:34:29.846Z,998.8
2018-07-25T03:35:30.570Z,998.9
2018-07-25T03:36:31.304Z,998.8
2018-07-25T03:37:32.298Z,998.9
2018-07-25T03:38:33.016Z,998.9
2018-07-25T03:39:33.999Z,998.9
2018-07-25T03:40:34.723Z,998.8
2018-07-25T03:41:35.448Z,998.8
2018-07-25T03:42:36.171Z,998.8
2018-07-25T03:43:36.902Z,998.9
2018-07-25T03:44:37.884Z,998.8
2018-07-25T03:45:38.597Z,998.9
2018-07-25T03:46:39.326Z,998.9
2018-07-25T03:47:40.046Z,998.9
2018-07-25T03:48:40.779Z,998.9
2018-07-25T03:49:41.515Z,998.9
2018-07-25T03:50:42.234Z,998.9
2018-07-25T03:51:42.961Z,998.9
2018-07-25T03:52:43.678Z,998.9
2018-07-25T03:53:44.404Z,998.9
2018-07-25T03:54:45.137Z,998.9
2018-07-25T03:55:45.863Z,998.9
2018-07-25T03:56:46.594Z,999.0
2018-07-25T03:57:47.372Z,999.0
2018-07-25T03:58:48.100Z,999.0
2018-07-25T03:59:49.077Z,999.0
2018-07-25T04:00:49.813Z,999.0
2018-07-25T04:01:50.598Z,999.1
2018-07-25T04:02:51.271Z,999.0
2018-07-25T04:03:52.003Z,999.1
2018-07-25T04:04:52.730Z,999.0
2018-07-25T04:05:53.454Z,999.0
2018-07-25T04:06:54.186Z,999.1
2018-07-25T04:07:54.907Z,999.0
2018-07-25T04:08:55.631Z,999.1
2018-07-25T04:09:56.373Z,999.1
2018-07-25T04:10:57.092Z,999.1
2018-07-25T04:11:57.821Z,999.1
2018-07-25T04:12:58.793Z,999.1
2018-07-25T04:13:59.521Z,999.1
2018-07-25T04:15:00.251Z,999.1
2018-07-25T04:16:00.976Z,999.2
2018-07-25T04:17:01.701Z,999.2
2018-07-25T04:18:02.448Z,999.2
2018-07-25T04:19:03.177Z,999.2
2018-07-25T04:20:03.898Z,999.2
2018-07-25T04:21:04.637Z,999.2
2018-07-25T04:22:05.369Z,999.2
2018-07-25T04:23:06.103Z,999.2
2018-07-25T04:24:06.834Z,999.2
2018-07-25T04:25:07.818Z,999.2
2018-07-25T04:26:08.551Z,999.2
2018-07-25T04:27:09.277Z,999.2
2018-07-25T04:28:10.055Z,999.2
2018-07-25T04:29:10.794Z,999.2
2018-07-25T04:30:11.526Z,999.2
2018-07-25T04:31:12.244Z,999.2
2018-07-25T04:32:12.978Z,999.2
2018-07-25T04:33:13.774Z,999.2
2018-07-25T04:34:14.507Z,999.3
2018-07-25T04:35:15.234Z,999.2
2018-07-25T04:36:15.967Z,999.3
2018-07-25T04:37:16.696Z,999.3
2018-07-25T04:38:17.788Z,999.3
2018-07-25T04:39:18.535Z,999.3
2018-07-25T04:40:19.273Z,999.3
2018-07-25T04:41:20.016Z,999.3
2018-07-25T04:42:20.734Z,999.3
2018-07-25T04:43:21.464Z,999.3
2018-07-25T04:44:22.471Z,999.3
2018-07-25T04:45:23.171Z,999.3
2018-07-25T04:46:23.999Z,999.3
2018-07-25T04:47:24.633Z,999.3
2018-07-25T04:48:25.363Z,999.3
2018-07-25T04:49:26.095Z,999.3
2018-07-25T04:50:26.828Z,999.3
2018-07-25T04:51:27.564Z,999.3
2018-07-25T04:52:28.294Z,999.3
2018-07-25T04:53:29.068Z,999.3
2018-07-25T04:54:29.796Z,999.2
2018-07-25T04:55:30.778Z,999.3
2018-07-25T04:56:31.517Z,999.3
2018-07-25T04:57:32.239Z,999.3
2018-07-25T04:58:33.319Z,999.3
2018-07-25T04:59:34.052Z,999.3
2018-07-25T05:00:34.789Z,999.3
2018-07-25T05:01:35.533Z,999.3
2018-07-25T05:02:36.254Z,999.3
2018-07-25T05:03:36.977Z,999.3
2018-07-25T05:04:37.707Z,999.3
2018-07-25T05:05:38.443Z,999.3
2018-07-25T05:06:39.164Z,999.3
2018-07-25T05:07:39.913Z,999.3
2018-07-25T05:08:40.638Z,999.3
2018-07-25T05:09:41.374Z,999.3
2018-07-25T05:10:42.093Z,999.4
2018-07-25T05:11:43.191Z,999.4
2018-07-25T05:12:44.178Z,999.4
2018-07-25T05:13:45.682Z,999.4
2018-07-25T05:14:46.791Z,999.4
2018-07-25T05:15:47.529Z,999.4
2018-07-25T05:16:48.260Z,999.4
2018-07-25T05:17:49.002Z,999.4
2018-07-25T05:18:49.971Z,999.5
2018-07-25T05:19:50.697Z,999.5
2018-07-25T05:20:51.682Z,999.5
2018-07-25T05:21:52.404Z,999.5
2018-07-25T05:22:53.286Z,999.5
2018-07-25T05:23:54.108Z,999.5
2018-07-25T05:24:55.090Z,999.5
2018-07-25T05:25:56.071Z,999.5
2018-07-25T05:26:56.789Z,999.5
2018-07-25T05:27:58.201Z,999.6
2018-07-25T05:28:58.974Z,999.5
2018-07-25T05:30:00.265Z,999.6
2018-07-25T05:31:00.944Z,999.6
2018-07-25T05:32:01.676Z,999.6
2018-07-25T05:33:02.462Z,999.6
2018-07-25T05:34:03.597Z,999.6
2018-07-25T05:35:04.417Z,999.6
2018-07-25T05:36:05.657Z,999.7
2018-07-25T05:37:06.755Z,999.6
2018-07-25T05:38:07.627Z,999.7
2018-07-25T05:39:08.436Z,999.7
2018-07-25T05:40:09.357Z,999.7
2018-07-25T05:41:10.646Z,999.7
2018-07-25T05:42:11.861Z,999.7
2018-07-25T05:43:12.672Z,999.7
2018-07-25T05:44:13.414Z,999.7
2018-07-25T05:45:14.137Z,999.7
2018-07-25T05:46:15.427Z,999.7
2018-07-25T05:47:16.287Z,999.7
2018-07-25T05:48:17.477Z,999.7
2018-07-25T05:49:18.202Z,999.7
2018-07-25T05:50:18.938Z,999.7
2018-07-25T05:51:20.193Z,999.7
2018-07-25T05:52:21.061Z,999.7
2018-07-25T05:53:21.810Z,999.7
2018-07-25T05:54:22.532Z,999.7
2018-07-25T05:55:23.266Z,999.8
2018-07-25T05:56:23.997Z,999.8
2018-07-25T05:57:24.730Z,999.8
2018-07-25T05:58:25.467Z,999.8
2018-07-25T05:59:26.203Z,999.8
2018-07-25T06:00:27.182Z,999.8
2018-07-25T06:01:28.174Z,999.9
2018-07-25T06:02:28.921Z,999.9
2018-07-25T06:03:29.702Z,999.9
2018-07-25T06:04:30.432Z,1000.0
2018-07-25T06:05:31.169Z,1000.0
2018-07-25T06:06:31.893Z,1000.0
2018-07-25T06:07:32.622Z,999.9
2018-07-25T06:08:33.366Z,999.9
2018-07-25T06:09:34.148Z,999.9
2018-07-25T06:10:34.897Z,999.9
2018-07-25T06:11:35.621Z,999.9
2018-07-25T06:12:36.345Z,999.9
2018-07-25T06:13:37.078Z,1000.0
2018-07-25T06:14:37.808Z,999.9
2018-07-25T06:15:38.543Z,999.9
2018-07-25T06:16:39.316Z,999.9
2018-07-25T06:17:40.091Z,1000.0
2018-07-25T06:18:40.797Z,1000.0
2018-07-25T06:19:41.848Z,1000.0
2018-07-25T06:20:42.660Z,1000.0
2018-07-25T06:21:43.362Z,1000.0
2018-07-25T06:22:44.097Z,999.9
2018-07-25T06:23:44.827Z,1000.0
2018-07-25T06:24:45.814Z,1000.0
2018-07-25T06:25:46.538Z,1000.0
2018-07-25T06:26:47.317Z,1000.0
2018-07-25T06:27:48.058Z,1000.0
2018-07-25T06:28:48.794Z,1000.0
2018-07-25T06:29:49.533Z,1000.0
2018-07-25T06:30:50.264Z,1000.0
2018-07-25T06:31:51.004Z,1000.0
2018-07-25T06:32:51.737Z,1000.0
2018-07-25T06:33:52.831Z,1000.0
2018-07-25T06:34:53.638Z,1000.0
2018-07-25T06:35:54.277Z,1000.0
2018-07-25T06:36:55.021Z,1000.0
2018-07-25T06:37:55.813Z,1000.0
2018-07-25T06:38:56.505Z,1000.0
2018-07-25T06:39:57.235Z,1000.0
2018-07-25T06:40:57.992Z,999.9
2018-07-25T06:41:58.717Z,1000.0
2018-07-25T06:42:59.705Z,1000.0
2018-07-25T06:44:00.432Z,1000.0
2018-07-25T06:45:01.159Z,1000.0
2018-07-25T06:46:01.889Z,1000.0
2018-07-25T06:47:02.627Z,1000.0
2018-07-25T06:48:03.407Z,1000.0
2018-07-25T06:49:04.483Z,1000.0
2018-07-25T06:50:05.210Z,1000.0
2018-07-25T06:51:05.963Z,1000.0
2018-07-25T06:52:06.689Z,1000.0
2018-07-25T06:53:07.437Z,1000.0
2018-07-25T06:54:08.172Z,1000.0
2018-07-25T06:55:08.909Z,1000.0
2018-07-25T06:56:09.639Z,1000.0
2018-07-25T06:57:10.470Z,1000.0
2018-07-25T06:58:11.169Z,1000.0
2018-07-25T06:59:12.170Z,1000.0
2018-07-25T07:00:12.894Z,1000.0
2018-07-25T07:01:13.632Z,1000.0
2018-07-25T07:02:14.349Z,1000.0
2018-07-25T07:03:15.080Z,1000.1
2018-07-25T07:04:15.824Z,1000.1
2018-07-25T07:05:16.564Z,1000.1
2018-07-25T07:06:17.295Z,1000.1
2018-07-25T07:07:18.039Z,1000.1
2018-07-25T07:08:18.800Z,1000.1
2018-07-25T07:09:19.808Z,1000.1
2018-07-25T07:10:20.533Z,1000.1
2018-07-25T07:11:21.570Z,1000.1
2018-07-25T07:12:22.563Z,1000.1
2018-07-25T07:13:23.330Z,1000.1
2018-07-25T07:14:24.068Z,1000.1
2018-07-25T07:15:24.809Z,1000.1
2018-07-25T07:16:25.543Z,1000.2
2018-07-25T07:17:26.325Z,1000.1
2018-07-25T07:18:27.020Z,1000.1
2018-07-25T07:19:27.752Z,1000.1
2018-07-25T07:20:28.485Z,1000.1
2018-07-25T07:21:29.217Z,1000.1
2018-07-25T07:22:29.996Z,1000.2
2018-07-25T07:23:30.723Z,1000.1
2018-07-25T07:24:31.473Z,1000.1
2018-07-25T07:25:32.204Z,1000.1
2018-07-25T07:26:32.948Z,1000.1
2018-07-25T07:27:34.490Z,1000.1
2018-07-25T07:28:35.220Z,1000.1
2018-07-25T07:29:35.969Z,1000.2
2018-07-25T07:30:36.707Z,1000.1
2018-07-25T07:31:37.447Z,1000.2
2018-07-25T07:32:38.193Z,1000.2
2018-07-25T07:33:38.931Z,1000.2
2018-07-25T07:34:39.662Z,1000.1
2018-07-25T07:35:40.393Z,1000.2
2018-07-25T07:36:41.165Z,1000.2
2018-07-25T07:37:41.900Z,1000.2
2018-07-25T07:38:42.674Z,1000.2
2018-07-25T07:39:43.402Z,1000.2
2018-07-25T07:40:44.143Z,1000.2
2018-07-25T07:41:44.878Z,1000.2
2018-07-25T07:42:45.612Z,1000.2
2018-07-25T07:43:46.404Z,1000.2
2018-07-25T07:44:47.137Z,1000.2
2018-07-25T07:45:47.876Z,1000.2
2018-07-25T07:46:48.609Z,1000.3
2018-07-25T07:47:49.355Z,1000.2
2018-07-25T07:48:50.134Z,1000.3
2018-07-25T07:49:50.873Z,1000.3
2018-07-25T07:50:51.604Z,1000.2
2018-07-25T07:51:52.337Z,1000.2
2018-07-25T07:52:53.318Z,1000.3
2018-07-25T07:53:54.451Z,1000.3
2018-07-25T07:54:55.156Z,1000.3
2018-07-25T07:55:55.904Z,1000.3
2018-07-25T07:56:56.644Z,1000.3
2018-07-25T07:57:57.387Z,1000.3
2018-07-25T07:58:58.135Z,1000.3
2018-07-25T07:59:58.880Z,1000.2
2018-07-25T08:00:59.620Z,1000.3
2018-07-25T08:02:00.360Z,1000.2
2018-07-25T08:03:01.099Z,1000.3
2018-07-25T08:04:01.827Z,1000.2
2018-07-25T08:05:02.824Z,1000.2
2018-07-25T08:06:03.613Z,1000.3
2018-07-25T08:07:04.610Z,1000.2
2018-07-25T08:08:05.336Z,1000.2
2018-07-25T08:09:06.080Z,1000.3
2018-07-25T08:10:06.809Z,1000.2
2018-07-25T08:11:07.589Z,1000.3
2018-07-25T08:12:08.330Z,1000.2
2018-07-25T08:13:09.072Z,1000.3
2018-07-25T08:14:09.808Z,1000.3
2018-07-25T08:15:10.559Z,1000.3
2018-07-25T08:16:11.662Z,1000.2
2018-07-25T08:17:12.464Z,1000.3
2018-07-25T08:18:13.209Z,1000.2
2018-07-25T08:19:14.207Z,1000.3
2018-07-25T08:20:15.190Z,1000.2
2018-07-25T08:21:16.236Z,1000.3
2018-07-25T08:22:16.922Z,1000.2
2018-07-25T08:23:17.661Z,1000.2
2018-07-25T08:24:18.444Z,1000.2
2018-07-25T08:25:19.189Z,1000.3
2018-07-25T08:26:19.925Z,1000.2
2018-07-25T08:27:20.669Z,1000.3
2018-07-25T08:28:21.410Z,1000.3
2018-07-25T08:29:22.154Z,1000.3
2018-07-25T08:30:22.883Z,1000.2
2018-07-25T08:31:23.674Z,1000.2
2018-07-25T08:32:24.414Z,1000.2
2018-07-25T08:33:25.151Z,1000.2
2018-07-25T08:34:25.944Z,1000.2
2018-07-25T08:35:26.625Z,1000.2
2018-07-25T08:36:27.374Z,1000.2
2018-07-25T08:37:28.120Z,1000.2
2018-07-25T08:38:28.855Z,1000.2
2018-07-25T08:39:29.605Z,1000.2
2018-07-25T08:40:30.354Z,1000.2
2018-07-25T08:41:31.111Z,1000.2
2018-07-25T08:42:31.835Z,1000.2
2018-07-25T08:43:32.563Z,1000.2
2018-07-25T08:44:33.323Z,1000.2
2018-07-25T08:45:34.074Z,1000.3
2018-07-25T08:46:34.817Z,1000.2
2018-07-25T08:47:35.564Z,1000.2
2018-07-25T08:48:36.358Z,1000.2
2018-07-25T08:49:37.117Z,1000.2
2018-07-25T08:50:37.860Z,1000.2
2018-07-25T08:51:38.598Z,1000.2
2018-07-25T08:52:39.354Z,1000.2
2018-07-25T08:53:40.077Z,1000.2
2018-07-25T08:54:41.083Z,1000.2
2018-07-25T08:55:41.825Z,1000.3
2018-07-25T08:56:42.833Z,1000.2
2018-07-25T08:57:43.589Z,1000.2
2018-07-25T08:58:44.308Z,1000.2
2018-07-25T08:59:45.057Z,1000.2
2018-07-25T09:00:45.788Z,1000.2
2018-07-25T09:01:46.557Z,1000.3
2018-07-25T09:02:47.281Z,1000.3
2018-07-25T09:03:48.015Z,1000.3
2018-07-25T09:04:48.814Z,1000.3
2018-07-25T09:05:49.800Z,1000.3
2018-07-25T09:06:50.543Z,1000.3
2018-07-25T09:07:51.295Z,1000.3
2018-07-25T09:08:52.045Z,1000.3
2018-07-25T09:09:52.790Z,1000.3
2018-07-25T09:10:53.538Z,1000.3
2018-07-25T09:11:54.276Z,1000.3
2018-07-25T09:12:55.060Z,1000.3
2018-07-25T09:13:55.775Z,1000.3
2018-07-25T09:14:56.516Z,1000.3
2018-07-25T09:15:57.252Z,1000.3
2018-07-25T09:16:58.050Z,1000.3
2018-07-25T09:17:58.737Z,1000.3
2018-07-25T09:18:59.480Z,1000.3
2018-07-25T09:20:00.198Z,1000.3
2018-07-25T09:21:00.945Z,1000.3
2018-07-25T09:22:01.691Z,1000.3
2018-07-25T09:23:02.432Z,1000.3
2018-07-25T09:24:03.189Z,1000.3
2018-07-25T09:25:03.961Z,1000.3
2018-07-25T09:26:04.681Z,1000.3
2018-07-25T09:27:05.466Z,1000.3
2018-07-25T09:28:06.221Z,1000.3
2018-07-25T09:29:06.978Z,1000.3
2018-07-25T09:30:07.719Z,1000.2
2018-07-25T09:31:08.454Z,1000.2
2018-07-25T09:32:09.248Z,1000.2
2018-07-25T09:33:09.989Z,1000.2
2018-07-25T09:34:10.832Z,1000.2
2018-07-25T09:35:11.465Z,1000.2
2018-07-25T09:36:12.204Z,1000.2
2018-07-25T09:37:12.956Z,1000.2
2018-07-25T09:38:13.698Z,1000.2
2018-07-25T09:39:14.469Z,1000.2
2018-07-25T09:40:15.208Z,1000.2
2018-07-25T09:41:15.958Z,1000.2
2018-07-25T09:42:16.699Z,1000.2
2018-07-25T09:43:17.450Z,1000.3
2018-07-25T09:44:18.185Z,1000.3
2018-07-25T09:45:18.986Z,1000.3
2018-07-25T09:46:19.767Z,1000.2
2018-07-25T09:47:20.457Z,1000.2
2018-07-25T09:48:21.193Z,1000.2
2018-07-25T09:49:21.935Z,1000.2
2018-07-25T09:50:23.013Z,1000.2
2018-07-25T09:51:23.760Z,1000.2
2018-07-25T09:52:24.511Z,1000.2
2018-07-25T09:53:25.272Z,1000.2
2018-07-25T09:54:26.004Z,1000.2
2018-07-25T09:55:26.782Z,1000.2
2018-07-25T09:56:27.535Z,1000.2
2018-07-25T09:57:28.273Z,1000.2
2018-07-25T09:58:29.025Z,1000.2
2018-07-25T09:59:29.762Z,1000.2
2018-07-25T10:00:30.508Z,1000.2
2018-07-25T10:01:31.250Z,1000.2
2018-07-25T10:02:32.528Z,1000.2
2018-07-25T10:03:33.261Z,1000.2
2018-07-25T10:04:34.008Z,1000.2
2018-07-25T10:05:34.776Z,1000.2
2018-07-25T10:06:35.855Z,1000.2
2018-07-25T10:07:36.636Z,1000.1
2018-07-25T10:08:37.375Z,1000.1
2018-07-25T10:09:38.198Z,1000.1
2018-07-25T10:10:39.044Z,1000.2
2018-07-25T10:11:39.784Z,1000.1
2018-07-25T10:12:40.549Z,1000.1
2018-07-25T10:13:41.294Z,1000.1
2018-07-25T10:14:42.031Z,1000.1
2018-07-25T10:15:42.774Z,1000.1
2018-07-25T10:16:43.518Z,1000.1
2018-07-25T10:17:44.268Z,1000.1
2018-07-25T10:18:45.011Z,1000.1
2018-07-25T10:19:45.744Z,1000.1
2018-07-25T10:20:46.600Z,1000.1
2018-07-25T10:21:47.652Z,1000.1
2018-07-25T10:22:48.399Z,1000.1
2018-07-25T10:23:49.129Z,1000.1
2018-07-25T10:24:49.892Z,1000.1
2018-07-25T10:25:50.716Z,1000.1
2018-07-25T10:26:51.449Z,1000.1
2018-07-25T10:27:52.172Z,1000.1
2018-07-25T10:28:52.921Z,1000.1
2018-07-25T10:29:53.681Z,1000.1
2018-07-25T10:30:54.421Z,1000.1
2018-07-25T10:31:55.213Z,1000.1
2018-07-25T10:32:56.006Z,1000.1
2018-07-25T10:33:56.701Z,1000.1
2018-07-25T10:34:57.443Z,1000.1
2018-07-25T10:35:58.175Z,1000.1
2018-07-25T10:36:58.934Z,1000.1
2018-07-25T10:37:59.662Z,1000.1
2018-07-25T10:39:00.446Z,1000.0
2018-07-25T10:40:01.157Z,1000.1
2018-07-25T10:41:02.297Z,1000.1
2018-07-25T10:42:03.148Z,1000.0
2018-07-25T10:43:03.916Z,1000.0
2018-07-25T10:44:04.731Z,1000.0
2018-07-25T10:45:05.457Z,1000.0
2018-07-25T10:46:06.197Z,1000.0
2018-07-25T10:47:07.140Z,1000.0
2018-07-25T10:48:07.862Z,1000.0
2018-07-25T10:49:08.626Z,1000.0
2018-07-25T10:50:09.371Z,1000.0
2018-07-25T10:51:10.116Z,1000.1
2018-07-25T10:52:11.203Z,1000.0
2018-07-25T10:53:11.940Z,1000.0
2018-07-25T10:54:12.680Z,1000.0
2018-07-25T10:55:13.681Z,1000.0
2018-07-25T10:56:14.442Z,1000.0
2018-07-25T10:57:15.235Z,1000.1
2018-07-25T10:58:16.005Z,1000.0
2018-07-25T10:59:16.747Z,1000.0
2018-07-25T11:00:17.488Z,1000.0
2018-07-25T11:01:18.228Z,1000.0
2018-07-25T11:02:19.025Z,1000.1
2018-07-25T11:03:19.828Z,1000.1
2018-07-25T11:04:20.541Z,1000.0
2018-07-25T11:05:21.299Z,1000.0
2018-07-25T11:06:22.053Z,1000.1
2018-07-25T11:07:22.791Z,1000.0
2018-07-25T11:08:23.558Z,1000.0
2018-07-25T11:09:24.286Z,1000.0
2018-07-25T11:10:25.040Z,1000.0
2018-07-25T11:11:26.032Z,1000.0
2018-07-25T11:12:26.776Z,999.9
2018-07-25T11:13:27.518Z,999.9
2018-07-25T11:14:28.267Z,999.9
2018-07-25T11:15:29.022Z,999.9
2018-07-25T11:16:29.789Z,999.9
2018-07-25T11:17:30.856Z,999.9
2018-07-25T11:18:31.595Z,999.9
2018-07-25T11:19:32.344Z,999.9
2018-07-25T11:20:33.082Z,1000.0
2018-07-25T11:21:33.814Z,1000.0
2018-07-25T11:22:34.611Z,999.9
2018-07-25T11:23:35.356Z,1000.0
2018-07-25T11:24:36.115Z,999.9
2018-07-25T11:25:36.867Z,1000.0
2018-07-25T11:26:37.603Z,999.9
2018-07-25T11:27:38.606Z,999.9
2018-07-25T11:28:39.342Z,999.9
2018-07-25T11:29:40.100Z,999.9
2018-07-25T11:30:40.839Z,999.9
2018-07-25T11:31:41.578Z,999.9
2018-07-25T11:32:42.371Z,999.9
2018-07-25T11:33:43.082Z,999.9
2018-07-25T11:34:43.810Z,999.9
2018-07-25T11:35:44.600Z,999.9
2018-07-25T11:36:45.340Z,999.8
2018-07-25T11:37:46.558Z,999.8
2018-07-25T11:38:47.610Z,999.8
2018-07-25T11:39:48.381Z,999.9
2018-07-25T11:40:49.147Z,999.9
2018-07-25T11:41:49.885Z,999.8
2018-07-25T11:42:50.644Z,999.8
2018-07-25T11:43:51.379Z,999.8
2018-07-25T11:44:52.167Z,999.8
2018-07-25T11:45:52.906Z,999.8
2018-07-25T11:46:53.640Z,999.8
2018-07-25T11:47:54.631Z,999.8
2018-07-25T11:48:55.381Z,999.8
2018-07-25T11:49:56.216Z,999.8
2018-07-25T11:50:56.942Z,999.8
2018-07-25T11:51:57.696Z,999.8
2018-07-25T11:52:58.464Z,999.7
2018-07-25T11:53:59.221Z,999.8
2018-07-25T11:55:00.057Z,999.7
2018-07-25T11:56:00.939Z,999.7
2018-07-25T11:57:01.680Z,999.7
2018-07-25T11:58:02.708Z,999.7
2018-07-25T11:59:03.437Z,999.7
2018-07-25T12:00:04.421Z,999.7
2018-07-25T12:01:05.171Z,999.7
2018-07-25T12:02:05.900Z,999.7
2018-07-25T12:03:06.654Z,999.8
2018-07-25T12:04:07.740Z,999.7
2018-07-25T12:05:08.521Z,999.7
2018-07-25T12:06:09.252Z,999.7
2018-07-25T12:07:09.996Z,999.7
2018-07-25T12:08:10.732Z,999.8
2018-07-25T12:09:11.480Z,999.8
2018-07-25T12:10:12.219Z,999.7
2018-07-25T12:11:12.967Z,999.7
2018-07-25T12:12:13.695Z,999.7
2018-07-25T12:13:14.448Z,999.8
2018-07-25T12:14:15.190Z,999.8
2018-07-25T12:15:15.930Z,999.8
2018-07-25T12:16:16.671Z,999.8
2018-07-25T12:17:17.463Z,999.8
2018-07-25T12:18:18.587Z,999.7
2018-07-25T12:19:19.331Z,999.7
2018-07-25T12:20:20.071Z,999.7
2018-07-25T12:21:20.836Z,999.7
2018-07-25T12:22:21.604Z,999.8
2018-07-25T12:23:22.348Z,999.8
2018-07-25T12:24:23.088Z,999.7
2018-07-25T12:25:23.836Z,999.7
2018-07-25T12:26:25.444Z,999.7
2018-07-25T12:27:26.587Z,999.7
2018-07-25T12:28:27.453Z,999.7
2018-07-25T12:29:28.188Z,999.7
2018-07-25T12:30:28.947Z,999.7
2018-07-25T12:31:29.684Z,999.7
2018-07-25T12:32:30.420Z,999.7
2018-07-25T12:33:31.249Z,999.7
2018-07-25T12:34:32.005Z,999.7
2018-07-25T12:35:32.736Z,999.7
2018-07-25T12:36:33.768Z,999.7
2018-07-25T12:37:34.534Z,999.7
2018-07-25T12:38:35.276Z,999.7
2018-07-25T12:39:36.018Z,999.7
2018-07-25T12:40:36.772Z,999.7
2018-07-25T12:41:37.537Z,999.7
2018-07-25T12:42:38.269Z,999.7
2018-07-25T12:43:39.019Z,999.7
2018-07-25T12:44:39.766Z,999.7
2018-07-25T12:45:40.516Z,999.7
2018-07-25T12:46:41.267Z,999.7
2018-07-25T12:47:42.057Z,999.7
2018-07-25T12:48:42.793Z,999.7
2018-07-25T12:49:43.589Z,999.7
2018-07-25T12:50:44.338Z,999.7
2018-07-25T12:51:45.095Z,999.7
2018-07-25T12:52:45.830Z,999.7
2018-07-25T12:53:46.654Z,999.7